Arlington, Wyoming
Current Conditions -  °F | °C
As of 4:15 AM on Friday 28 Nov 2014 (Local Time) from KEHY Reporting Station
Clear Clear  
Wind Chill:   Ceiling: Unl
Heat Index:   Visibility: 10mi
Dew Point: -12°   Wind: 32mph
Humidity: 25%   Direction: 230°SW
Pressure: 29.99"   Gusts: 43mph
Location:  41.6691°N, 106.011°W
Report Text: KEHY 281115Z AUTO 23028G37KT 10SM CLR 07/M12 A2999 RMK AO2
Loading
Personal Weather Stations






























Interactive Weather Map New forecast layout! Learn more

10-Day Weather Forecast

Advertisements
Track Severe Weather on mobile